Concord, Indiana
Current Conditions -  °F | °C
As of 7:53 AM on Monday 22 Dec 2014 (Local Time) from KGSH Reporting Station
Haze Haze  
Wind Chill: 19°   Ceiling: 10000
Heat Index: 28°   Visibility: 5mi
Dew Point: 24°   Wind: 9mph
Humidity: 85%   Direction: 110°ESE
Pressure: 30"   Gusts: NA
Location:  41.6236°N, 85.9974°W
Report Text: KGSH 221253Z AUTO 11008KT 5SM BR OVC100 M02/M04 A3000 RMK AO2 SLP169 T10221044
Loading
Personal Weather Stations






























Interactive Weather Map New forecast layout! Learn more

10-Day Weather Forecast

Advertisements
Track Severe Weather on mobile